Temp: 11.9°C   Baro: 993.0mb
  Wind: 4.0mph   Dir: SSE (152°)
  Rain: 0.6mm (0.0mm/hr)
  Solar: 0W/m2  Hum: 75%
 
Bath Spa Weather Station Historical Data
Daily Summary for August 21, 2019 Units:  Both    English   Metric
Daily Weekly Monthly Yearly Custom
  High: Low: Average:
Temperature: 56.4 °F /  13.6 °C 48 °F /  8.9 °C 51.1 °F /  10.6 °C
Dew Point: 49.5 °F /  9.7 °C 45.1 °F /  7.3 °C 47 °F /  8.3 °C
Humidity: 92% 75% 86%
Wind Speed: 8.3mph /  13.4km/h - 3mph /  4.8km/h
Wind Gust: 15mph /  24.1km/h - -
Wind- - SSW
Pressure: 30.22 in /  1023.2 hPa 30.00 in /  1015.8 hPa -
Precipitation: 0.00 in /  0 mm    
Historical Graphs
 
 
Tabular Data for August 21, 2019
Time Temperature Dew Point Pressure Wind Wind Speed Wind Gust Humidity Rainfall Rate (Hourly) solar
00:04 49.8 °F /  9.9 °C 46.8 °F /  8.2 °C 30.00in /  1015.8hPa North 2.6mph /  4.2km/h 6mph /  9.7km/h 89% 0.00in /  0mm 0 W/m2
00:09 49.8 °F /  9.9 °C 46.8 °F /  8.2 °C 30.00in /  1015.8hPa North 3.5mph /  5.6km/h 8mph /  12.9km/h 89% 0.00in /  0mm 0 W/m2
00:14 49.8 °F /  9.9 °C 46.8 °F /  8.2 °C 30.00in /  1015.8hPa NNW 1.8mph /  2.9km/h 8mph /  12.9km/h 89% 0.00in /  0mm 0 W/m2
00:19 49.8 °F /  9.9 °C 46.7 °F /  8.2 °C 30.00in /  1015.8hPa NW 0.7mph /  1.1km/h 3mph /  4.8km/h 88.8% 0.00in /  0mm 0 W/m2
00:24 49.8 °F /  9.9 °C 46.6 °F /  8.1 °C 30.00in /  1015.8hPa North 2.1mph /  3.4km/h 7mph /  11.3km/h 88.5% 0.00in /  0mm 0 W/m2
00:29 49.8 °F /  9.9 °C 46.8 °F /  8.2 °C 30.00in /  1015.8hPa North 0.3mph /  0.5km/h 3mph /  4.8km/h 89% 0.00in /  0mm 0 W/m2
00:34 49.7 °F /  9.8 °C 46.7 °F /  8.2 °C 30.01in /  1016.1hPa North 0.2mph /  0.3km/h 3mph /  4.8km/h 89% 0.00in /  0mm 0 W/m2
00:39 49.6 °F /  9.8 °C 46.6 °F /  8.1 °C 30.01in /  1016.1hPa North 1.2mph /  1.9km/h 4mph /  6.4km/h 89% 0.00in /  0mm 0 W/m2
00:44 49.6 °F /  9.8 °C 46.6 °F /  8.1 °C 30.01in /  1016.1hPa North 1.9mph /  3.1km/h 6mph /  9.7km/h 89% 0.00in /  0mm 0 W/m2
00:49 49.6 °F /  9.8 °C 46.6 °F /  8.1 °C 30.01in /  1016.1hPa NNW 1.4mph /  2.3km/h 5mph /  8km/h 89% 0.00in /  0mm 0 W/m2
00:54 49.6 °F /  9.8 °C 46.6 °F /  8.1 °C 30.01in /  1016.1hPa NNW 2.8mph /  4.5km/h 7mph /  11.3km/h 89% 0.00in /  0mm 0 W/m2
00:59 49.6 °F /  9.8 °C 46.6 °F /  8.1 °C 30.01in /  1016.1hPa North 2.4mph /  3.9km/h 7mph /  11.3km/h 89% 0.00in /  0mm 0 W/m2
01:04 49.6 °F /  9.8 °C 46.6 °F /  8.1 °C 30.00in /  1015.8hPa NNW 3mph /  4.8km/h 10mph /  16.1km/h 89% 0.00in /  0mm 0 W/m2
01:09 49.7 °F /  9.8 °C 46.7 °F /  8.2 °C 30.00in /  1015.8hPa North 4.1mph /  6.6km/h 10mph /  16.1km/h 89% 0.00in /  0mm 0 W/m2
01:14 49.8 °F /  9.9 °C 46.8 °F /  8.2 °C 30.00in /  1015.8hPa NNW 2.7mph /  4.3km/h 9mph /  14.5km/h 89% 0.00in /  0mm 0 W/m2
01:19 49.8 °F /  9.9 °C 46.8 °F /  8.2 °C 30.00in /  1015.8hPa North 2.5mph /  4km/h 9mph /  14.5km/h 89% 0.00in /  0mm 0 W/m2
01:24 49.9 °F /  9.9 °C 46.9 °F /  8.3 °C 30.00in /  1015.8hPa North 2.2mph /  3.5km/h 7mph /  11.3km/h 89% 0.00in /  0mm 0 W/m2
01:29 50 °F /  10 °C 46.9 °F /  8.3 °C 30.00in /  1015.8hPa North 3.9mph /  6.3km/h 9mph /  14.5km/h 89% 0.00in /  0mm 0 W/m2
01:34 50 °F /  10 °C 46.9 °F /  8.3 °C 30.00in /  1015.8hPa NNW 1.4mph /  2.3km/h 9mph /  14.5km/h 89% 0.00in /  0mm 0 W/m2
01:39 50.1 °F /  10.1 °C 47 °F /  8.3 °C 30.00in /  1015.8hPa NNW 2.1mph /  3.4km/h 9mph /  14.5km/h 89% 0.00in /  0mm 0 W/m2
01:44 50.2 °F /  10.1 °C 47 °F /  8.3 °C 30.01in /  1016.1hPa NNW 2mph /  3.2km/h 9mph /  14.5km/h 88.9% 0.00in /  0mm 0 W/m2
01:49 50.2 °F /  10.1 °C 46.8 °F /  8.2 °C 30.01in /  1016.1hPa NNW 2.5mph /  4km/h 9mph /  14.5km/h 88% 0.00in /  0mm 0 W/m2
01:54 50.1 °F /  10.1 °C 46.7 °F /  8.2 °C 30.01in /  1016.1hPa NNW 0.4mph /  0.6km/h 9mph /  14.5km/h 88% 0.00in /  0mm 0 W/m2
01:59 50.1 °F /  10.1 °C 46.7 °F /  8.2 °C 30.01in /  1016.1hPa North 5.1mph /  8.2km/h 12mph /  19.3km/h 88% 0.00in /  0mm 0 W/m2
02:04 50.2 °F /  10.1 °C 46.8 °F /  8.2 °C 30.00in /  1015.8hPa North 5.1mph /  8.2km/h 12mph /  19.3km/h 88% 0.00in /  0mm 0 W/m2
02:09 50.2 °F /  10.1 °C 46.8 °F /  8.2 °C 30.00in /  1015.8hPa North 4.4mph /  7.1km/h 12mph /  19.3km/h 88% 0.00in /  0mm 0 W/m2
02:14 50.2 °F /  10.1 °C 46.8 °F /  8.2 °C 30.00in /  1015.8hPa North 5.2mph /  8.4km/h 12mph /  19.3km/h 88% 0.00in /  0mm 0 W/m2
02:19 50.2 °F /  10.1 °C 46.8 °F /  8.2 °C 30.00in /  1015.8hPa North 3.8mph /  6.1km/h 12mph /  19.3km/h 88% 0.00in /  0mm 0 W/m2
02:24 50.2 °F /  10.1 °C 46.8 °F /  8.2 °C 30.00in /  1015.8hPa NNE 5.1mph /  8.2km/h 12mph /  19.3km/h 88% 0.00in /  0mm 0 W/m2
02:29 50.2 °F /  10.1 °C 46.8 °F /  8.2 °C 30.01in /  1016.1hPa North 6.9mph /  11.1km/h 13mph /  20.9km/h 88% 0.00in /  0mm 0 W/m2
02:34 50.3 °F /  10.2 °C 46.9 °F /  8.3 °C 30.01in /  1016.1hPa North 7.7mph /  12.4km/h 13mph /  20.9km/h 88% 0.00in /  0mm 0 W/m2
02:39 50.4 °F /  10.2 °C 46.8 °F /  8.2 °C 30.01in /  1016.1hPa NNE 8.3mph /  13.4km/h 15mph /  24.1km/h 87.6% 0.00in /  0mm 0 W/m2
02:44 50.4 °F /  10.2 °C 46.7 °F /  8.2 °C 30.01in /  1016.1hPa NNE 2.6mph /  4.2km/h 14mph /  22.5km/h 87% 0.00in /  0mm 0 W/m2
02:49 50.4 °F /  10.2 °C 46.6 °F /  8.1 °C 30.01in /  1016.1hPa NNE 4.4mph /  7.1km/h 10mph /  16.1km/h 87% 0.00in /  0mm 0 W/m2
02:54 50.4 °F /  10.2 °C 46.6 °F /  8.1 °C 30.01in /  1016.1hPa North 4.5mph /  7.2km/h 12mph /  19.3km/h 87% 0.00in /  0mm 0 W/m2
02:59 50.3 °F /  10.2 °C 46.5 °F /  8.1 °C 30.01in /  1016.1hPa North 4mph /  6.4km/h 10mph /  16.1km/h 87% 0.00in /  0mm 0 W/m2
03:04 50.2 °F /  10.1 °C 46.4 °F /  8 °C 30.02in /  1016.5hPa North 6.5mph /  10.5km/h 12mph /  19.3km/h 87% 0.00in /  0mm 0 W/m2
03:09 50 °F /  10 °C 46.2 °F /  7.9 °C 30.02in /  1016.5hPa North 5.8mph /  9.3km/h 12mph /  19.3km/h 87% 0.00in /  0mm 0 W/m2
03:14 49.9 °F /  9.9 °C 46.4 °F /  8 °C 30.02in /  1016.5hPa North 6.8mph /  10.9km/h 12mph /  19.3km/h 87.8% 0.00in /  0mm 0 W/m2
03:19 49.8 °F /  9.9 °C 46.1 °F /  7.8 °C 30.02in /  1016.5hPa North 7.5mph /  12.1km/h 13mph /  20.9km/h 87.3% 0.00in /  0mm 0 W/m2
03:24 49.8 °F /  9.9 °C 46 °F /  7.8 °C 30.02in /  1016.5hPa North 6.4mph /  10.3km/h 13mph /  20.9km/h 87% 0.00in /  0mm 0 W/m2
03:29 49.8 °F /  9.9 °C 46 °F /  7.8 °C 30.02in /  1016.5hPa North 6.9mph /  11.1km/h 14mph /  22.5km/h 87% 0.00in /  0mm 0 W/m2
03:34 49.8 °F /  9.9 °C 46.1 °F /  7.8 °C 30.02in /  1016.5hPa North 4.1mph /  6.6km/h 12mph /  19.3km/h 87.1% 0.00in /  0mm 0 W/m2
03:39 49.8 °F /  9.9 °C 46 °F /  7.8 °C 30.03in /  1016.8hPa NNE 5.3mph /  8.5km/h 12mph /  19.3km/h 87% 0.00in /  0mm 0 W/m2
03:44 49.8 °F /  9.9 °C 46 °F /  7.8 °C 30.03in /  1016.8hPa North 4.3mph /  6.9km/h 12mph /  19.3km/h 87% 0.00in /  0mm 0 W/m2
03:49 49.8 °F /  9.9 °C 46 °F /  7.8 °C 30.03in /  1016.8hPa NNE 2.3mph /  3.7km/h 10mph /  16.1km/h 87% 0.00in /  0mm 0 W/m2
03:54 49.8 °F /  9.9 °C 46 °F /  7.8 °C 30.03in /  1016.8hPa NNE 3.5mph /  5.6km/h 10mph /  16.1km/h 87% 0.00in /  0mm 0 W/m2
03:59 49.8 °F /  9.9 °C 46.3 °F /  7.9 °C 30.03in /  1016.8hPa North 5.9mph /  9.5km/h 12mph /  19.3km/h 87.7% 0.00in /  0mm 0 W/m2
04:04 49.8 °F /  9.9 °C 46.4 °F /  8 °C 30.03in /  1016.8hPa NNE 5.8mph /  9.3km/h 11mph /  17.7km/h 88% 0.00in /  0mm 0 W/m2
04:09 49.6 °F /  9.8 °C 46.2 °F /  7.9 °C 30.03in /  1016.8hPa NNW 3.8mph /  6.1km/h 11mph /  17.7km/h 88% 0.00in /  0mm 0 W/m2
04:14 49.5 °F /  9.7 °C 46.1 °F /  7.8 °C 30.03in /  1016.8hPa NNW 4.7mph /  7.6km/h 9mph /  14.5km/h 88% 0.00in /  0mm 0 W/m2
04:19 49.5 °F /  9.7 °C 46 °F /  7.8 °C 30.04in /  1017.2hPa North 4.2mph /  6.8km/h 9mph /  14.5km/h 88% 0.00in /  0mm 0 W/m2
04:24 49.3 °F /  9.6 °C 46.1 °F /  7.8 °C 30.04in /  1017.2hPa North 5.1mph /  8.2km/h 11mph /  17.7km/h 88.7% 0.00in /  0mm 0 W/m2
04:29 49.1 °F /  9.5 °C 46 °F /  7.8 °C 30.04in /  1017.2hPa North 2.9mph /  4.7km/h 9mph /  14.5km/h 89% 0.00in /  0mm 0 W/m2
04:34 48.9 °F /  9.4 °C 45.9 °F /  7.7 °C 30.04in /  1017.2hPa North 6.3mph /  10.1km/h 11mph /  17.7km/h 89% 0.00in /  0mm 0 W/m2
04:39 48.9 °F /  9.4 °C 46 °F /  7.8 °C 30.04in /  1017.2hPa NNW 3.4mph /  5.5km/h 11mph /  17.7km/h 89.8% 0.00in /  0mm 0 W/m2
04:44 48.7 °F /  9.3 °C 45.9 °F /  7.7 °C 30.04in /  1017.2hPa North 2.6mph /  4.2km/h 8mph /  12.9km/h 90% 0.00in /  0mm 0 W/m2
04:49 48.7 °F /  9.3 °C 45.9 °F /  7.7 °C 30.04in /  1017.2hPa NNW 3.3mph /  5.3km/h 8mph /  12.9km/h 90% 0.00in /  0mm 0 W/m2
04:54 48.6 °F /  9.2 °C 45.8 °F /  7.7 °C 30.04in /  1017.2hPa North 2.8mph /  4.5km/h 7mph /  11.3km/h 90% 0.00in /  0mm 0 W/m2
04:59 48.6 °F /  9.2 °C 45.9 °F /  7.7 °C 30.04in /  1017.2hPa NNW 5.1mph /  8.2km/h 9mph /  14.5km/h 90.7% 0.00in /  0mm 0 W/m2
05:04 48.6 °F /  9.2 °C 46 °F /  7.8 °C 30.04in /  1017.2hPa NNW 3.8mph /  6.1km/h 9mph /  14.5km/h 91% 0.00in /  0mm 0 W/m2
05:09 48.6 °F /  9.2 °C 46 °F /  7.8 °C 30.04in /  1017.2hPa North 5.4mph /  8.7km/h 11mph /  17.7km/h 91% 0.00in /  0mm 0 W/m2
05:14 48.6 °F /  9.2 °C 46 °F /  7.8 °C 30.04in /  1017.2hPa NNW 4.8mph /  7.7km/h 12mph /  19.3km/h 91% 0.00in /  0mm 0 W/m2
05:19 48.6 °F /  9.2 °C 46 °F /  7.8 °C 30.04in /  1017.2hPa NNW 4.1mph /  6.6km/h 12mph /  19.3km/h 91% 0.00in /  0mm 0 W/m2
05:24 48.6 °F /  9.2 °C 46 °F /  7.8 °C 30.04in /  1017.2hPa NNW 5.1mph /  8.2km/h 11mph /  17.7km/h 91% 0.00in /  0mm 0 W/m2
05:29 48.6 °F /  9.2 °C 46 °F /  7.8 °C 30.04in /  1017.2hPa NW 3.7mph /  6km/h 11mph /  17.7km/h 91% 0.00in /  0mm 0 W/m2
05:34 48.6 °F /  9.2 °C 46 °F /  7.8 °C 30.04in /  1017.2hPa North 4.2mph /  6.8km/h 11mph /  17.7km/h 91% 0.00in /  0mm 0 W/m2
05:39 48.5 °F /  9.2 °C 46 °F /  7.8 °C 30.04in /  1017.2hPa NNW 3.8mph /  6.1km/h 11mph /  17.7km/h 91% 0.00in /  0mm 0 W/m2
05:44 48.4 °F /  9.1 °C 45.9 °F /  7.7 °C 30.05in /  1017.5hPa NNW 4.1mph /  6.6km/h 9mph /  14.5km/h 91% 0.00in /  0mm 0 W/m2
05:49 48.4 °F /  9.1 °C 45.9 °F /  7.7 °C 30.05in /  1017.5hPa NNW 5.1mph /  8.2km/h 11mph /  17.7km/h 91% 0.00in /  0mm 0 W/m2
05:54 48.3 °F /  9.1 °C 45.8 °F /  7.7 °C 30.05in /  1017.5hPa North 3.4mph /  5.5km/h 8mph /  12.9km/h 91% 0.00in /  0mm 0 W/m2
05:59 48.2 °F /  9 °C 45.7 °F /  7.6 °C 30.05in /  1017.5hPa NNW 3.3mph /  5.3km/h 9mph /  14.5km/h 91% 0.00in /  0mm 0 W/m2
06:04 48.1 °F /  8.9 °C 45.6 °F /  7.6 °C 30.05in /  1017.5hPa North 4.3mph /  6.9km/h 9mph /  14.5km/h 91% 0.00in /  0mm 0 W/m2
06:09 48 °F /  8.9 °C 45.5 °F /  7.5 °C 30.05in /  1017.5hPa NNW 4mph /  6.4km/h 7mph /  11.3km/h 91% 0.00in /  0mm 0 W/m2
06:14 48 °F /  8.9 °C 45.5 °F /  7.5 °C 30.05in /  1017.5hPa NNW 2mph /  3.2km/h 6mph /  9.7km/h 91% 0.00in /  0mm 0 W/m2
06:19 48 °F /  8.9 °C 45.5 °F /  7.5 °C 30.05in /  1017.5hPa NW 2.6mph /  4.2km/h 7mph /  11.3km/h 91% 0.00in /  0mm 0 W/m2
06:24 48.2 °F /  9 °C 45.7 °F /  7.6 °C 30.06in /  1017.8hPa NNW 4.7mph /  7.6km/h 8mph /  12.9km/h 91% 0.00in /  0mm 0 W/m2
06:29 48.2 °F /  9 °C 45.7 °F /  7.6 °C 30.06in /  1017.8hPa NW 4.3mph /  6.9km/h 9mph /  14.5km/h 91% 0.00in /  0mm 0 W/m2
06:34 48.2 °F /  9 °C 45.7 °F /  7.6 °C 30.06in /  1017.8hPa North 5.7mph /  9.2km/h 11mph /  17.7km/h 91% 0.00in /  0mm 0 W/m2
06:39 48.1 °F /  8.9 °C 45.6 °F /  7.6 °C 30.06in /  1017.8hPa NNW 3.5mph /  5.6km/h 7mph /  11.3km/h 91% 0.00in /  0mm 0 W/m2
06:44 48 °F /  8.9 °C 45.5 °F /  7.5 °C 30.06in /  1017.8hPa NNW 4.3mph /  6.9km/h 10mph /  16.1km/h 91% 0.00in /  0mm 0 W/m2
06:49 48 °F /  8.9 °C 45.5 °F /  7.5 °C 30.07in /  1018.2hPa NNW 3.4mph /  5.5km/h 8mph /  12.9km/h 91% 0.00in /  0mm 0 W/m2
06:54 48 °F /  8.9 °C 45.5 °F /  7.5 °C 30.07in /  1018.2hPa North 6mph /  9.7km/h 10mph /  16.1km/h 91% 0.00in /  0mm 0 W/m2
06:59 48 °F /  8.9 °C 45.5 °F /  7.5 °C 30.07in /  1018.2hPa North 5.5mph /  8.9km/h 11mph /  17.7km/h 91% 0.00in /  0mm 0 W/m2
07:04 48.1 °F /  8.9 °C 45.6 °F /  7.6 °C 30.07in /  1018.2hPa NNW 4.2mph /  6.8km/h 9mph /  14.5km/h 91% 0.00in /  0mm 0 W/m2
07:09 48.1 °F /  8.9 °C 45.6 °F /  7.6 °C 30.07in /  1018.2hPa North 5.1mph /  8.2km/h 10mph /  16.1km/h 91% 0.00in /  0mm 0 W/m2
07:14 48.2 °F /  9 °C 45.7 °F /  7.6 °C 30.07in /  1018.2hPa North 5.5mph /  8.9km/h 10mph /  16.1km/h 91% 0.00in /  0mm 0 W/m2
07:19 48.4 °F /  9.1 °C 45.9 °F /  7.7 °C 30.08in /  1018.5hPa NNW 3.4mph /  5.5km/h 10mph /  16.1km/h 91% 0.00in /  0mm 0 W/m2
07:24 48.4 °F /  9.1 °C 45.9 °F /  7.7 °C 30.08in /  1018.5hPa NNW 5.9mph /  9.5km/h 12mph /  19.3km/h 91% 0.00in /  0mm 0 W/m2
07:29 48.4 °F /  9.1 °C 45.9 °F /  7.7 °C 30.08in /  1018.5hPa NNW 4.1mph /  6.6km/h 9mph /  14.5km/h 91% 0.00in /  0mm 0 W/m2
07:34 48.4 °F /  9.1 °C 45.9 °F /  7.7 °C 30.08in /  1018.5hPa NNW 4.8mph /  7.7km/h 10mph /  16.1km/h 91% 0.00in /  0mm 0 W/m2
07:39 48.4 °F /  9.1 °C 46 °F /  7.8 °C 30.08in /  1018.5hPa NNW 5.7mph /  9.2km/h 11mph /  17.7km/h 91.2% 0.00in /  0mm 0 W/m2
07:44 48.4 °F /  9.1 °C 46.2 °F /  7.9 °C 30.08in /  1018.5hPa NNW 3.7mph /  6km/h 9mph /  14.5km/h 92% 0.00in /  0mm 0 W/m2
07:49 48.4 °F /  9.1 °C 46.2 °F /  7.9 °C 30.08in /  1018.5hPa North 3.7mph /  6km/h 10mph /  16.1km/h 92% 0.00in /  0mm 5 W/m2
07:54 48.4 °F /  9.1 °C 46.2 °F /  7.9 °C 30.08in /  1018.5hPa NNW 3.6mph /  5.8km/h 9mph /  14.5km/h 92% 0.00in /  0mm 9 W/m2
07:59 48.4 °F /  9.1 °C 46.2 °F /  7.9 °C 30.08in /  1018.5hPa NNW 3mph /  4.8km/h 9mph /  14.5km/h 92% 0.00in /  0mm 9 W/m2
08:04 48.5 °F /  9.2 °C 46.3 °F /  7.9 °C 30.08in /  1018.5hPa NNW 3.6mph /  5.8km/h 9mph /  14.5km/h 92% 0.00in /  0mm 11 W/m2
08:09 48.6 °F /  9.2 °C 46.4 °F /  8 °C 30.09in /  1018.8hPa NNW 3.5mph /  5.6km/h 8mph /  12.9km/h 92% 0.00in /  0mm 12 W/m2
08:14 48.6 °F /  9.2 °C 46.4 °F /  8 °C 30.09in /  1018.8hPa NNW 4.9mph /  7.9km/h 9mph /  14.5km/h 92% 0.00in /  0mm 19 W/m2
08:19 48.6 °F /  9.2 °C 46.4 °F /  8 °C 30.09in /  1018.8hPa NW 4.4mph /  7.1km/h 9mph /  14.5km/h 92% 0.00in /  0mm 21 W/m2
08:24 48.7 °F /  9.3 °C 46.6 °F /  8.1 °C 30.09in /  1018.8hPa NNW 3.1mph /  5km/h 9mph /  14.5km/h 92% 0.00in /  0mm 19 W/m2
08:29 48.7 °F /  9.3 °C 46.6 °F /  8.1 °C 30.09in /  1018.8hPa NNW 1.9mph /  3.1km/h 6mph /  9.7km/h 92% 0.00in /  0mm 25 W/m2
08:34 48.7 °F /  9.3 °C 46.6 °F /  8.1 °C 30.09in /  1018.8hPa NW 0.4mph /  0.6km/h 5mph /  8km/h 92% 0.00in /  0mm 26 W/m2
08:39 48.9 °F /  9.4 °C 46.8 °F /  8.2 °C 30.09in /  1018.8hPa Calm   1mph /  1.6km/h 92% 0.00in /  0mm 35 W/m2
08:44 48.9 °F /  9.4 °C 46.8 °F /  8.2 °C 30.10in /  1019.2hPa NW 1.2mph /  1.9km/h 4mph /  6.4km/h 92% 0.00in /  0mm 42 W/m2
08:49 48.9 °F /  9.4 °C 46.8 °F /  8.2 °C 30.10in /  1019.2hPa NW 1.2mph /  1.9km/h 5mph /  8km/h 92% 0.00in /  0mm 56 W/m2
08:54 49.1 °F /  9.5 °C 46.9 °F /  8.3 °C 30.10in /  1019.2hPa WNW 1.5mph /  2.4km/h 6mph /  9.7km/h 92% 0.00in /  0mm 58 W/m2
08:59 49.3 °F /  9.6 °C 47.1 °F /  8.4 °C 30.10in /  1019.2hPa WNW 2mph /  3.2km/h 4mph /  6.4km/h 92% 0.00in /  0mm 53 W/m2
09:04 49.3 °F /  9.6 °C 47.1 °F /  8.4 °C 30.10in /  1019.2hPa NW 1.9mph /  3.1km/h 5mph /  8km/h 92% 0.00in /  0mm 49 W/m2
09:09 49.3 °F /  9.6 °C 47.1 °F /  8.4 °C 30.11in /  1019.5hPa NW 1.3mph /  2.1km/h 5mph /  8km/h 92% 0.00in /  0mm 49 W/m2
09:14 49.4 °F /  9.7 °C 47.2 °F /  8.4 °C 30.11in /  1019.5hPa North 3.6mph /  5.8km/h 7mph /  11.3km/h 92% 0.00in /  0mm 54 W/m2
09:19 49.4 °F /  9.7 °C 47.2 °F /  8.4 °C 30.11in /  1019.5hPa NNW 3.9mph /  6.3km/h 8mph /  12.9km/h 92% 0.00in /  0mm 84 W/m2
09:24 49.5 °F /  9.7 °C 47.3 °F /  8.5 °C 30.11in /  1019.5hPa North 3mph /  4.8km/h 7mph /  11.3km/h 92% 0.00in /  0mm 90 W/m2
09:29 49.6 °F /  9.8 °C 47 °F /  8.3 °C 30.11in /  1019.5hPa North 3.7mph /  6km/h 8mph /  12.9km/h 91% 0.00in /  0mm 81 W/m2
09:34 49.6 °F /  9.8 °C 47.1 °F /  8.4 °C 30.11in /  1019.5hPa North 4.1mph /  6.6km/h 9mph /  14.5km/h 91% 0.00in /  0mm 76 W/m2
09:39 49.7 °F /  9.8 °C 47.2 °F /  8.4 °C 30.11in /  1019.5hPa North 4.2mph /  6.8km/h 9mph /  14.5km/h 91% 0.00in /  0mm 83 W/m2
09:44 49.8 °F /  9.9 °C 47.3 °F /  8.5 °C 30.11in /  1019.5hPa North 4mph /  6.4km/h 9mph /  14.5km/h 91% 0.00in /  0mm 86 W/m2
09:49 49.9 °F /  9.9 °C 47.4 °F /  8.6 °C 30.11in /  1019.5hPa North 6mph /  9.7km/h 12mph /  19.3km/h 91% 0.00in /  0mm 100 W/m2
09:54 50 °F /  10 °C 47.5 °F /  8.6 °C 30.12in /  1019.9hPa NNW 4.2mph /  6.8km/h 12mph /  19.3km/h 91% 0.00in /  0mm 104 W/m2
09:59 50 °F /  10 °C 47.5 °F /  8.6 °C 30.12in /  1019.9hPa NNW 4mph /  6.4km/h 7mph /  11.3km/h 91% 0.00in /  0mm 123 W/m2
10:04 50 °F /  10 °C 47.5 °F /  8.6 °C 30.12in /  1019.9hPa North 4.6mph /  7.4km/h 12mph /  19.3km/h 91% 0.00in /  0mm 141 W/m2
10:09 50.2 °F /  10.1 °C 47.7 °F /  8.7 °C 30.12in /  1019.9hPa North 5.4mph /  8.7km/h 11mph /  17.7km/h 91% 0.00in /  0mm 141 W/m2
10:14 50.2 °F /  10.1 °C 47.7 °F /  8.7 °C 30.12in /  1019.9hPa NNE 3.1mph /  5km/h 11mph /  17.7km/h 91% 0.00in /  0mm 123 W/m2
10:19 50.4 °F /  10.2 °C 47.8 °F /  8.8 °C 30.12in /  1019.9hPa NNE 2.2mph /  3.5km/h 10mph /  16.1km/h 91% 0.00in /  0mm 104 W/m2
10:24 50.5 °F /  10.3 °C 48 °F /  8.9 °C 30.13in /  1020.2hPa North 4.8mph /  7.7km/h 9mph /  14.5km/h 91% 0.00in /  0mm 102 W/m2
10:29 50.6 °F /  10.3 °C 48.1 °F /  8.9 °C 30.13in /  1020.2hPa North 3.5mph /  5.6km/h 9mph /  14.5km/h 91% 0.00in /  0mm 102 W/m2
10:34 50.9 °F /  10.5 °C 48.4 °F /  9.1 °C 30.13in /  1020.2hPa North 1.2mph /  1.9km/h 7mph /  11.3km/h 91% 0.00in /  0mm 70 W/m2
10:39 51 °F /  10.6 °C 48.5 °F /  9.2 °C 30.13in /  1020.2hPa North 1.7mph /  2.7km/h 9mph /  14.5km/h 91% 0.00in /  0mm 81 W/m2
10:44 50.9 °F /  10.5 °C 48.4 °F /  9.1 °C 30.13in /  1020.2hPa North 6.7mph /  10.8km/h 12mph /  19.3km/h 91% 0.00in /  0mm 88 W/m2
10:49 50.7 °F /  10.4 °C 47.9 °F /  8.8 °C 30.13in /  1020.2hPa North 3.3mph /  5.3km/h 10mph /  16.1km/h 90.3% 0.00in /  0mm 134 W/m2
10:54 50.9 °F /  10.5 °C 48.4 °F /  9.1 °C 30.14in /  1020.5hPa North 3.6mph /  5.8km/h 8mph /  12.9km/h 91% 0.00in /  0mm 169 W/m2
10:59 51.2 °F /  10.7 °C 48.6 °F /  9.2 °C 30.14in /  1020.5hPa NNW 2mph /  3.2km/h 8mph /  12.9km/h 91% 0.00in /  0mm 172 W/m2
11:04 51.3 °F /  10.7 °C 48.8 °F /  9.3 °C 30.14in /  1020.5hPa NW 2.6mph /  4.2km/h 8mph /  12.9km/h 90.9% 0.00in /  0mm 206 W/m2
11:09 51.4 °F /  10.8 °C 48.6 °F /  9.2 °C 30.14in /  1020.5hPa NNW 4.6mph /  7.4km/h 9mph /  14.5km/h 90% 0.00in /  0mm 188 W/m2
11:14 51.5 °F /  10.8 °C 48.6 °F /  9.2 °C 30.14in /  1020.5hPa North 2.5mph /  4km/h 9mph /  14.5km/h 90% 0.00in /  0mm 155 W/m2
11:19 51.7 °F /  10.9 °C 48.8 °F /  9.3 °C 30.14in /  1020.5hPa NNE 1.9mph /  3.1km/h 8mph /  12.9km/h 90% 0.00in /  0mm 151 W/m2
11:24 51.8 °F /  11 °C 48.8 °F /  9.3 °C 30.14in /  1020.5hPa NNE 4.4mph /  7.1km/h 9mph /  14.5km/h 89.7% 0.00in /  0mm 153 W/m2
11:29 52 °F /  11.1 °C 48.9 °F /  9.4 °C 30.14in /  1020.5hPa North 3mph /  4.8km/h 9mph /  14.5km/h 89% 0.00in /  0mm 186 W/m2
11:34 52 °F /  11.1 °C 48.9 °F /  9.4 °C 30.14in /  1020.5hPa NNW 3.2mph /  5.1km/h 9mph /  14.5km/h 89% 0.00in /  0mm 200 W/m2
11:39 52.2 °F /  11.2 °C 49.1 °F /  9.5 °C 30.14in /  1020.5hPa North 5.1mph /  8.2km/h 11mph /  17.7km/h 88.8% 0.00in /  0mm 183 W/m2
11:44 52.3 °F /  11.3 °C 48.9 °F /  9.4 °C 30.14in /  1020.5hPa NNE 1mph /  1.6km/h 8mph /  12.9km/h 88% 0.00in /  0mm 160 W/m2
11:49 52.6 °F /  11.4 °C 49.2 °F /  9.6 °C 30.14in /  1020.5hPa NNE 4.1mph /  6.6km/h 9mph /  14.5km/h 88% 0.00in /  0mm 158 W/m2
11:54 52.7 °F /  11.5 °C 49 °F /  9.4 °C 30.14in /  1020.5hPa North 3.9mph /  6.3km/h 9mph /  14.5km/h 87.2% 0.00in /  0mm 181 W/m2
11:59 52.9 °F /  11.6 °C 49.1 °F /  9.5 °C 30.15in /  1020.9hPa NNE 3.2mph /  5.1km/h 9mph /  14.5km/h 87% 0.00in /  0mm 181 W/m2
12:04 53 °F /  11.7 °C 48.9 °F /  9.4 °C 30.15in /  1020.9hPa NNE 5.5mph /  8.9km/h 12mph /  19.3km/h 86.2% 0.00in /  0mm 169 W/m2
12:09 53.1 °F /  11.7 °C 48.9 °F /  9.4 °C 30.15in /  1020.9hPa North 4.7mph /  7.6km/h 9mph /  14.5km/h 85.8% 0.00in /  0mm 199 W/m2
12:14 53.1 °F /  11.7 °C 48.8 °F /  9.3 °C 30.15in /  1020.9hPa NNE 3.3mph /  5.3km/h 8mph /  12.9km/h 85.4% 0.00in /  0mm 250 W/m2
12:19 53.5 °F /  11.9 °C 49.1 °F /  9.5 °C 30.15in /  1020.9hPa North 3.1mph /  5km/h 8mph /  12.9km/h 84.8% 0.00in /  0mm 357 W/m2
12:24 53.9 °F /  12.2 °C 49.1 °F /  9.5 °C 30.15in /  1020.9hPa North 5.1mph /  8.2km/h 9mph /  14.5km/h 83.8% 0.00in /  0mm 332 W/m2
12:29 53.9 °F /  12.2 °C 48.9 °F /  9.4 °C 30.15in /  1020.9hPa NNE 3.2mph /  5.1km/h 9mph /  14.5km/h 83% 0.00in /  0mm 322 W/m2
12:34 54.3 °F /  12.4 °C 49.1 °F /  9.5 °C 30.15in /  1020.9hPa NNE 2mph /  3.2km/h 9mph /  14.5km/h 82.6% 0.00in /  0mm 241 W/m2
12:39 54.3 °F /  12.4 °C 48.9 °F /  9.4 °C 30.15in /  1020.9hPa North 3.7mph /  6km/h 9mph /  14.5km/h 82% 0.00in /  0mm 111 W/m2
12:44 54 °F /  12.2 °C 48.6 °F /  9.2 °C 30.16in /  1021.2hPa North 6.8mph /  10.9km/h 13mph /  20.9km/h 82% 0.00in /  0mm 211 W/m2
12:49 53.6 °F /  12 °C 48.2 °F /  9 °C 30.15in /  1020.9hPa NNE 6.1mph /  9.8km/h 13mph /  20.9km/h 82% 0.00in /  0mm 229 W/m2
12:54 53.7 °F /  12.1 °C 48.3 °F /  9.1 °C 30.16in /  1021.2hPa NNE 5mph /  8km/h 11mph /  17.7km/h 82% 0.00in /  0mm 190 W/m2
12:59 53.8 °F /  12.1 °C 48.4 °F /  9.1 °C 30.16in /  1021.2hPa North 5.2mph /  8.4km/h 11mph /  17.7km/h 82% 0.00in /  0mm 172 W/m2
13:04 53.6 °F /  12 °C 48.2 °F /  9 °C 30.16in /  1021.2hPa North 4.9mph /  7.9km/h 11mph /  17.7km/h 82% 0.00in /  0mm 188 W/m2
13:09 53.6 °F /  12 °C 48.2 °F /  9 °C 30.15in /  1020.9hPa North 6.1mph /  9.8km/h 12mph /  19.3km/h 82% 0.00in /  0mm 162 W/m2
13:14 53.5 °F /  11.9 °C 48.1 °F /  8.9 °C 30.15in /  1020.9hPa North 4.2mph /  6.8km/h 12mph /  19.3km/h 82% 0.00in /  0mm 213 W/m2
13:19 53.8 °F /  12.1 °C 48.7 °F /  9.3 °C 30.15in /  1020.9hPa NNE 3.4mph /  5.5km/h 12mph /  19.3km/h 82.8% 0.00in /  0mm 575 W/m2
13:24 54.2 °F /  12.3 °C 49 °F /  9.4 °C 30.16in /  1021.2hPa North 6.4mph /  10.3km/h 11mph /  17.7km/h 82.3% 0.00in /  0mm 561 W/m2
13:29 54.3 °F /  12.4 °C 48.9 °F /  9.4 °C 30.16in /  1021.2hPa North 4.7mph /  7.6km/h 10mph /  16.1km/h 82% 0.00in /  0mm 376 W/m2
13:34 54.2 °F /  12.3 °C 48.6 °F /  9.2 °C 30.16in /  1021.2hPa NNE 5.9mph /  9.5km/h 13mph /  20.9km/h 81.5% 0.00in /  0mm 199 W/m2
13:39 54.1 °F /  12.3 °C 48.3 °F /  9.1 °C 30.16in /  1021.2hPa NE 5mph /  8km/h 12mph /  19.3km/h 81% 0.00in /  0mm 181 W/m2
13:44 54 °F /  12.2 °C 48.5 °F /  9.2 °C 30.15in /  1020.9hPa ENE 3.3mph /  5.3km/h 11mph /  17.7km/h 81.6% 0.00in /  0mm 153 W/m2
13:49 54.4 °F /  12.4 °C 49 °F /  9.4 °C 30.16in /  1021.2hPa Calm   5mph /  8km/h 82% 0.00in /  0mm 274 W/m2
13:54 54.9 °F /  12.7 °C 49.2 °F /  9.6 °C 30.15in /  1020.9hPa ENE 2.1mph /  3.4km/h 10mph /  16.1km/h 81.2% 0.00in /  0mm 188 W/m2
13:59 55 °F /  12.8 °C 49.2 °F /  9.6 °C 30.15in /  1020.9hPa NNE 0.5mph /  0.8km/h 5mph /  8km/h 80.8% 0.00in /  0mm 480 W/m2
14:04 55.7 °F /  13.2 °C 49.5 °F /  9.7 °C 30.15in /  1020.9hPa North 2.6mph /  4.2km/h 8mph /  12.9km/h 79.9% 0.00in /  0mm 480 W/m2
14:09 55.9 °F /  13.3 °C 49.1 °F /  9.5 °C 30.15in /  1020.9hPa NE 5.1mph /  8.2km/h 10mph /  16.1km/h 78.2% 0.00in /  0mm 519 W/m2
14:14 56.4 °F /  13.6 °C 49.1 °F /  9.5 °C 30.15in /  1020.9hPa NNE 6.8mph /  10.9km/h 14mph /  22.5km/h 76.7% 0.00in /  0mm 547 W/m2
14:19 55.9 °F /  13.3 °C 48.5 °F /  9.2 °C 30.16in /  1021.2hPa NNE 5mph /  8km/h 14mph /  22.5km/h 75.9% 0.00in /  0mm 202 W/m2
14:24 55.6 °F /  13.1 °C 48.3 °F /  9.1 °C 30.16in /  1021.2hPa NE 5.1mph /  8.2km/h 11mph /  17.7km/h 76.1% 0.00in /  0mm 229 W/m2
14:29 55.6 °F /  13.1 °C 48.6 °F /  9.2 °C 30.16in /  1021.2hPa NE 3.9mph /  6.3km/h 11mph /  17.7km/h 77% 0.00in /  0mm 209 W/m2
14:34 55.7 °F /  13.2 °C 48.6 °F /  9.2 °C 30.16in /  1021.2hPa NE 4mph /  6.4km/h 9mph /  14.5km/h 76.8% 0.00in /  0mm 267 W/m2
14:39 55.9 °F /  13.3 °C 48.5 °F /  9.2 °C 30.16in /  1021.2hPa NE 3.2mph /  5.1km/h 7mph /  11.3km/h 76% 0.00in /  0mm 234 W/m2
14:44 55.7 °F /  13.2 °C 48.3 °F /  9.1 °C 30.16in /  1021.2hPa NNE 7.1mph /  11.4km/h 11mph /  17.7km/h 76% 0.00in /  0mm 243 W/m2
14:49 55.4 °F /  13 °C 48 °F /  8.9 °C 30.16in /  1021.2hPa NNE 5.1mph /  8.2km/h 12mph /  19.3km/h 76% 0.00in /  0mm 364 W/m2
14:54 55.7 °F /  13.2 °C 48.1 °F /  8.9 °C 30.15in /  1020.9hPa North 3.8mph /  6.1km/h 8mph /  12.9km/h 75.6% 0.00in /  0mm 318 W/m2
14:59 55.8 °F /  13.2 °C 48 °F /  8.9 °C 30.15in /  1020.9hPa North 5mph /  8km/h 10mph /  16.1km/h 75% 0.00in /  0mm 223 W/m2
15:04 55.7 °F /  13.2 °C 47.9 °F /  8.8 °C 30.15in /  1020.9hPa North 5.9mph /  9.5km/h 11mph /  17.7km/h 75% 0.00in /  0mm 162 W/m2
15:09 55.7 °F /  13.2 °C 47.9 °F /  8.8 °C 30.15in /  1020.9hPa NNE 4.5mph /  7.2km/h 11mph /  17.7km/h 75% 0.00in /  0mm 125 W/m2
15:14 55.8 °F /  13.2 °C 48.1 °F /  8.9 °C 30.15in /  1020.9hPa NE 4.3mph /  6.9km/h 11mph /  17.7km/h 75% 0.00in /  0mm 127 W/m2
15:19 55.8 °F /  13.2 °C 48.1 °F /  8.9 °C 30.15in /  1020.9hPa NNE 2.8mph /  4.5km/h 10mph /  16.1km/h 75% 0.00in /  0mm 144 W/m2
15:24 55.8 °F /  13.2 °C 48.1 °F /  8.9 °C 30.15in /  1020.9hPa NNW 3.6mph /  5.8km/h 8mph /  12.9km/h 75% 0.00in /  0mm 141 W/m2
15:29 55.7 °F /  13.2 °C 48 °F /  8.9 °C 30.16in /  1021.2hPa NNW 6.2mph /  10km/h 13mph /  20.9km/h 75.3% 0.00in /  0mm 137 W/m2
15:34 55.2 °F /  12.9 °C 47.8 °F /  8.8 °C 30.16in /  1021.2hPa North 6.7mph /  10.8km/h 12mph /  19.3km/h 76% 0.00in /  0mm 142 W/m2
15:39 55 °F /  12.8 °C 48 °F /  8.9 °C 30.16in /  1021.2hPa North 5.4mph /  8.7km/h 10mph /  16.1km/h 76.9% 0.00in /  0mm 107 W/m2
15:44 54.9 °F /  12.7 °C 47.9 °F /  8.8 °C 30.16in /  1021.2hPa North 4.8mph /  7.7km/h 9mph /  14.5km/h 77% 0.00in /  0mm 69 W/m2
15:49 54.8 °F /  12.7 °C 47.8 °F /  8.8 °C 30.16in /  1021.2hPa North 7.8mph /  12.6km/h 12mph /  19.3km/h 77% 0.00in /  0mm 60 W/m2
15:54 54.5 °F /  12.5 °C 47.5 °F /  8.6 °C 30.16in /  1021.2hPa North 6.9mph /  11.1km/h 12mph /  19.3km/h 77% 0.00in /  0mm 65 W/m2
15:59 54.2 °F /  12.3 °C 47.4 °F /  8.6 °C 30.16in /  1021.2hPa North 6.6mph /  10.6km/h 12mph /  19.3km/h 77.5% 0.00in /  0mm 63 W/m2
16:04 54.1 °F /  12.3 °C 47.5 °F /  8.6 °C 30.16in /  1021.2hPa North 7mph /  11.3km/h 12mph /  19.3km/h 78% 0.00in /  0mm 60 W/m2
16:09 54 °F /  12.2 °C 47.3 °F /  8.5 °C 30.16in /  1021.2hPa North 6.6mph /  10.6km/h 12mph /  19.3km/h 78% 0.00in /  0mm 58 W/m2
16:14 53.9 °F /  12.2 °C 47.2 °F /  8.4 °C 30.16in /  1021.2hPa NNE 5.9mph /  9.5km/h 11mph /  17.7km/h 78% 0.00in /  0mm 56 W/m2
16:19 53.8 °F /  12.1 °C 47.1 °F /  8.4 °C 30.16in /  1021.2hPa NNW 4.8mph /  7.7km/h 11mph /  17.7km/h 78% 0.00in /  0mm 56 W/m2
16:24 53.8 °F /  12.1 °C 47.2 °F /  8.4 °C 30.16in /  1021.2hPa NNW 2.8mph /  4.5km/h 10mph /  16.1km/h 78.2% 0.00in /  0mm 56 W/m2
16:29 53.8 °F /  12.1 °C 47.5 °F /  8.6 °C 30.16in /  1021.2hPa NNW 2.3mph /  3.7km/h 6mph /  9.7km/h 79% 0.00in /  0mm 54 W/m2
16:34 53.8 °F /  12.1 °C 47.5 °F /  8.6 °C 30.16in /  1021.2hPa North 4.2mph /  6.8km/h 11mph /  17.7km/h 79% 0.00in /  0mm 47 W/m2
16:39 53.8 °F /  12.1 °C 47.5 °F /  8.6 °C 30.16in /  1021.2hPa North 4.4mph /  7.1km/h 7mph /  11.3km/h 79% 0.00in /  0mm 46 W/m2
16:44 53.6 °F /  12 °C 47.3 °F /  8.5 °C 30.16in /  1021.2hPa North 4.1mph /  6.6km/h 10mph /  16.1km/h 79.1% 0.00in /  0mm 44 W/m2
16:49 53.4 °F /  11.9 °C 47.2 °F /  8.4 °C 30.16in /  1021.2hPa North 4.8mph /  7.7km/h 10mph /  16.1km/h 79.3% 0.00in /  0mm 40 W/m2
16:54 53.4 °F /  11.9 °C 47.5 °F /  8.6 °C 30.16in /  1021.2hPa NNW 2.8mph /  4.5km/h 8mph /  12.9km/h 80% 0.00in /  0mm 33 W/m2
16:59 53.4 °F /  11.9 °C 47.5 °F /  8.6 °C 30.16in /  1021.2hPa North 3.1mph /  5km/h 6mph /  9.7km/h 80% 0.00in /  0mm 28 W/m2
17:04 53.2 °F /  11.8 °C 47.3 °F /  8.5 °C 30.16in /  1021.2hPa North 3.5mph /  5.6km/h 8mph /  12.9km/h 80% 0.00in /  0mm 23 W/m2
17:09 53.1 °F /  11.7 °C 47.2 °F /  8.4 °C 30.16in /  1021.2hPa North 6mph /  9.7km/h 10mph /  16.1km/h 80% 0.00in /  0mm 19 W/m2
17:14 53.1 °F /  11.7 °C 47.1 °F /  8.4 °C 30.16in /  1021.2hPa North 4.4mph /  7.1km/h 10mph /  16.1km/h 80% 0.00in /  0mm 16 W/m2
17:19 53.1 °F /  11.7 °C 47.1 °F /  8.4 °C 30.16in /  1021.2hPa NNW 2.6mph /  4.2km/h 7mph /  11.3km/h 80% 0.00in /  0mm 16 W/m2
17:24 53.1 °F /  11.7 °C 47.1 °F /  8.4 °C 30.16in /  1021.2hPa North 2.8mph /  4.5km/h 7mph /  11.3km/h 80% 0.00in /  0mm 14 W/m2
17:29 52.9 °F /  11.6 °C 46.9 °F /  8.3 °C 30.16in /  1021.2hPa North 3.7mph /  6km/h 9mph /  14.5km/h 80% 0.00in /  0mm 12 W/m2
17:34 53 °F /  11.7 °C 47 °F /  8.3 °C 30.16in /  1021.2hPa North 2.9mph /  4.7km/h 6mph /  9.7km/h 80% 0.00in /  0mm 11 W/m2
17:39 52.9 °F /  11.6 °C 46.9 °F /  8.3 °C 30.16in /  1021.2hPa NNW 3.4mph /  5.5km/h 7mph /  11.3km/h 80% 0.00in /  0mm 9 W/m2
17:44 52.9 °F /  11.6 °C 46.9 °F /  8.3 °C 30.16in /  1021.2hPa North 2.8mph /  4.5km/h 7mph /  11.3km/h 80% 0.00in /  0mm 7 W/m2
17:49 52.9 °F /  11.6 °C 47.1 °F /  8.4 °C 30.16in /  1021.2hPa North 3.9mph /  6.3km/h 7mph /  11.3km/h 80.5% 0.00in /  0mm 5 W/m2
17:54 52.9 °F /  11.6 °C 46.9 °F /  8.3 °C 30.17in /  1021.6hPa NNE 1.6mph /  2.6km/h 7mph /  11.3km/h 80% 0.00in /  0mm 5 W/m2
17:59 53 °F /  11.7 °C 47 °F /  8.3 °C 30.17in /  1021.6hPa NNE 3.5mph /  5.6km/h 7mph /  11.3km/h 80% 0.00in /  0mm 0 W/m2
18:04 53.1 °F /  11.7 °C 47.1 °F /  8.4 °C 30.17in /  1021.6hPa North 1.5mph /  2.4km/h 5mph /  8km/h 80% 0.00in /  0mm 0 W/m2
18:09 53.1 °F /  11.7 °C 47.1 °F /  8.4 °C 30.17in /  1021.6hPa North 1.2mph /  1.9km/h 4mph /  6.4km/h 80% 0.00in /  0mm 0 W/m2
18:14 53 °F /  11.7 °C 47 °F /  8.3 °C 30.17in /  1021.6hPa Calm   3mph /  4.8km/h 80% 0.00in /  0mm 0 W/m2
18:19 52.9 °F /  11.6 °C 46.9 °F /  8.3 °C 30.17in /  1021.6hPa North 0.3mph /  0.5km/h 2mph /  3.2km/h 80% 0.00in /  0mm 0 W/m2
18:24 52.9 °F /  11.6 °C 46.9 °F /  8.3 °C 30.18in /  1021.9hPa Calm   1mph /  1.6km/h 80% 0.00in /  0mm 0 W/m2
18:29 52.9 °F /  11.6 °C 46.9 °F /  8.3 °C 30.18in /  1021.9hPa Calm   1mph /  1.6km/h 80% 0.00in /  0mm 0 W/m2
18:34 52.9 °F /  11.6 °C 47.3 °F /  8.5 °C 30.18in /  1021.9hPa Calm     81% 0.00in /  0mm 0 W/m2
18:39 52.9 °F /  11.6 °C 47.3 °F /  8.5 °C 30.19in /  1022.2hPa Calm     81% 0.00in /  0mm 0 W/m2
18:44 52.7 °F /  11.5 °C 47.1 °F /  8.4 °C 30.19in /  1022.2hPa Calm     81% 0.00in /  0mm 0 W/m2
18:49 52.5 °F /  11.4 °C 47.1 °F /  8.4 °C 30.19in /  1022.2hPa North 0.3mph /  0.5km/h 2mph /  3.2km/h 82% 0.00in /  0mm 0 W/m2
18:54 52.5 °F /  11.4 °C 47.1 °F /  8.4 °C 30.19in /  1022.2hPa Calm   2mph /  3.2km/h 82% 0.00in /  0mm 0 W/m2
18:59 52.4 °F /  11.3 °C 47.1 °F /  8.4 °C 30.19in /  1022.2hPa Calm     82.2% 0.00in /  0mm 0 W/m2
19:04 52.3 °F /  11.3 °C 47.3 °F /  8.5 °C 30.19in /  1022.2hPa Calm     83% 0.00in /  0mm 0 W/m2
19:09 52.3 °F /  11.3 °C 47.3 °F /  8.5 °C 30.20in /  1022.6hPa Calm     83% 0.00in /  0mm 0 W/m2
19:14 52.3 °F /  11.3 °C 47.3 °F /  8.5 °C 30.20in /  1022.6hPa Calm     83% 0.00in /  0mm 0 W/m2
19:19 52.3 °F /  11.3 °C 47.2 °F /  8.4 °C 30.20in /  1022.6hPa North 0.1mph /  0.2km/h 1mph /  1.6km/h 83% 0.00in /  0mm 0 W/m2
19:24 52.2 °F /  11.2 °C 47.5 °F /  8.6 °C 30.20in /  1022.6hPa Calm     84% 0.00in /  0mm 0 W/m2
19:29 52.2 °F /  11.2 °C 47.5 °F /  8.6 °C 30.21in /  1022.9hPa Calm     84% 0.00in /  0mm 0 W/m2
19:34 52.2 °F /  11.2 °C 47.5 °F /  8.6 °C 30.21in /  1022.9hPa Calm     84% 0.00in /  0mm 0 W/m2
19:39 52.2 °F /  11.2 °C 47.5 °F /  8.6 °C 30.21in /  1022.9hPa Calm     84% 0.00in /  0mm 0 W/m2
19:44 52.2 °F /  11.2 °C 47.8 °F /  8.8 °C 30.21in /  1022.9hPa Calm     84.9% 0.00in /  0mm 0 W/m2
19:49 52.2 °F /  11.2 °C 47.8 °F /  8.8 °C 30.21in /  1022.9hPa Calm     85% 0.00in /  0mm 0 W/m2
19:54 52.2 °F /  11.2 °C 47.8 °F /  8.8 °C 30.21in /  1022.9hPa Calm     85% 0.00in /  0mm 0 W/m2
19:59 52 °F /  11.1 °C 47.7 °F /  8.7 °C 30.21in /  1022.9hPa Calm     85% 0.00in /  0mm 0 W/m2
20:04 52 °F /  11.1 °C 47.7 °F /  8.7 °C 30.21in /  1022.9hPa North 0.6mph /  1km/h 3mph /  4.8km/h 85% 0.00in /  0mm 0 W/m2
20:09 51.9 °F /  11.1 °C 47.6 °F /  8.7 °C 30.21in /  1022.9hPa Calm     85% 0.00in /  0mm 0 W/m2
20:14 51.6 °F /  10.9 °C 47.3 °F /  8.5 °C 30.21in /  1022.9hPa Calm     85% 0.00in /  0mm 0 W/m2
20:19 51.6 °F /  10.9 °C 47.3 °F /  8.5 °C 30.21in /  1022.9hPa NNW 0.7mph /  1.1km/h 3mph /  4.8km/h 85% 0.00in /  0mm 0 W/m2
20:24 51.6 °F /  10.9 °C 47 °F /  8.3 °C 30.21in /  1022.9hPa Calm   1mph /  1.6km/h 84.3% 0.00in /  0mm 0 W/m2
20:29 51.6 °F /  10.9 °C 46.9 °F /  8.3 °C 30.21in /  1022.9hPa Calm   1mph /  1.6km/h 84% 0.00in /  0mm 0 W/m2
20:34 51.6 °F /  10.9 °C 46.9 °F /  8.3 °C 30.21in /  1022.9hPa Calm     84% 0.00in /  0mm 0 W/m2
20:39 51.6 °F /  10.9 °C 46.9 °F /  8.3 °C 30.21in /  1022.9hPa Calm   1mph /  1.6km/h 84% 0.00in /  0mm 0 W/m2
20:44 51.6 °F /  10.9 °C 46.9 °F /  8.3 °C 30.21in /  1022.9hPa Calm   1mph /  1.6km/h 84% 0.00in /  0mm 0 W/m2
20:49 51.5 °F /  10.8 °C 46.9 °F /  8.3 °C 30.21in /  1022.9hPa NNW 0.1mph /  0.2km/h 1mph /  1.6km/h 84% 0.00in /  0mm 0 W/m2
20:54 51.5 °F /  10.8 °C 46.9 °F /  8.3 °C 30.21in /  1022.9hPa Calm   1mph /  1.6km/h 84% 0.00in /  0mm 0 W/m2
20:59 51.6 °F /  10.9 °C 46.9 °F /  8.3 °C 30.21in /  1022.9hPa Calm     84% 0.00in /  0mm 0 W/m2
21:04 51.5 °F /  10.8 °C 46.9 °F /  8.3 °C 30.21in /  1022.9hPa NNW 0.2mph /  0.3km/h 2mph /  3.2km/h 84% 0.00in /  0mm 0 W/m2
21:09 51.4 °F /  10.8 °C 46.8 °F /  8.2 °C 30.21in /  1022.9hPa NNW 0.7mph /  1.1km/h 2mph /  3.2km/h 84% 0.00in /  0mm 0 W/m2
21:14 51.4 °F /  10.8 °C 47 °F /  8.3 °C 30.21in /  1022.9hPa Calm   1mph /  1.6km/h 84.8% 0.00in /  0mm 0 W/m2
21:19 51.3 °F /  10.7 °C 47 °F /  8.3 °C 30.22in /  1023.2hPa NNW 0.3mph /  0.5km/h 2mph /  3.2km/h 85% 0.00in /  0mm 0 W/m2
21:24 51.2 °F /  10.7 °C 46.8 °F /  8.2 °C 30.22in /  1023.2hPa NNW 0.6mph /  1km/h 3mph /  4.8km/h 85% 0.00in /  0mm 0 W/m2
21:29 51.1 °F /  10.6 °C 46.8 °F /  8.2 °C 30.22in /  1023.2hPa NNW 0.1mph /  0.2km/h 1mph /  1.6km/h 84.9% 0.00in /  0mm 0 W/m2
21:34 51.1 °F /  10.6 °C 46.4 °F /  8 °C 30.21in /  1022.9hPa Calm   1mph /  1.6km/h 84% 0.00in /  0mm 0 W/m2
21:39 51.1 °F /  10.6 °C 46.8 °F /  8.2 °C 30.21in /  1022.9hPa Calm     85% 0.00in /  0mm 0 W/m2
21:44 51.1 °F /  10.6 °C 46.8 °F /  8.2 °C 30.22in /  1023.2hPa NNW 0.2mph /  0.3km/h 1mph /  1.6km/h 84.9% 0.00in /  0mm 0 W/m2
21:49 50.9 °F /  10.5 °C 46.5 °F /  8.1 °C 30.22in /  1023.2hPa NNW 0.3mph /  0.5km/h 2mph /  3.2km/h 84.6% 0.00in /  0mm 0 W/m2
21:54 50.6 °F /  10.3 °C 46.3 °F /  7.9 °C 30.22in /  1023.2hPa Calm   1mph /  1.6km/h 85% 0.00in /  0mm 0 W/m2
21:59 50.4 °F /  10.2 °C 46.1 °F /  7.8 °C 30.22in /  1023.2hPa NNW 0.8mph /  1.3km/h 3mph /  4.8km/h 85% 0.00in /  0mm 0 W/m2
22:04 50.4 °F /  10.2 °C 46 °F /  7.8 °C 30.22in /  1023.2hPa NNW 0.8mph /  1.3km/h 3mph /  4.8km/h 85% 0.00in /  0mm 0 W/m2
22:09 50.3 °F /  10.2 °C 46 °F /  7.8 °C 30.22in /  1023.2hPa Calm     85% 0.00in /  0mm 0 W/m2
22:14 50.1 °F /  10.1 °C 45.9 °F /  7.7 °C 30.22in /  1023.2hPa NNW 0.2mph /  0.3km/h 1mph /  1.6km/h 85.4% 0.00in /  0mm 0 W/m2
22:19 49.8 °F /  9.9 °C 45.9 °F /  7.7 °C 30.22in /  1023.2hPa NNW 0.5mph /  0.8km/h 2mph /  3.2km/h 86% 0.00in /  0mm 0 W/m2
22:24 49.8 °F /  9.9 °C 45.9 °F /  7.7 °C 30.22in /  1023.2hPa Calm   1mph /  1.6km/h 86% 0.00in /  0mm 0 W/m2
22:29 49.6 °F /  9.8 °C 45.7 °F /  7.6 °C 30.22in /  1023.2hPa Calm     86% 0.00in /  0mm 0 W/m2
22:34 49.5 °F /  9.7 °C 45.5 °F /  7.5 °C 30.22in /  1023.2hPa Calm   1mph /  1.6km/h 86.2% 0.00in /  0mm 0 W/m2
22:39 49.5 °F /  9.7 °C 45.7 °F /  7.6 °C 30.22in /  1023.2hPa NNW 0.4mph /  0.6km/h 2mph /  3.2km/h 86.9% 0.00in /  0mm 0 W/m2
22:44 49.3 °F /  9.6 °C 45.5 °F /  7.5 °C 30.22in /  1023.2hPa NNW 0.6mph /  1km/h 2mph /  3.2km/h 87% 0.00in /  0mm 0 W/m2
22:49 49.3 °F /  9.6 °C 45.5 °F /  7.5 °C 30.22in /  1023.2hPa Calm   1mph /  1.6km/h 87% 0.00in /  0mm 0 W/m2
22:54 49.4 °F /  9.7 °C 45.6 °F /  7.6 °C 30.22in /  1023.2hPa Calm     87% 0.00in /  0mm 0 W/m2
22:59 49.5 °F /  9.7 °C 45.7 °F /  7.6 °C 30.22in /  1023.2hPa Calm   1mph /  1.6km/h 87% 0.00in /  0mm 0 W/m2
23:04 49.3 °F /  9.6 °C 45.7 °F /  7.6 °C 30.22in /  1023.2hPa Calm     87.5% 0.00in /  0mm 0 W/m2
23:09 49.3 °F /  9.6 °C 45.9 °F /  7.7 °C 30.22in /  1023.2hPa Calm     88% 0.00in /  0mm 0 W/m2
23:14 49.3 °F /  9.6 °C 45.9 °F /  7.7 °C 30.22in /  1023.2hPa Calm     88% 0.00in /  0mm 0 W/m2
23:19 49.2 °F /  9.6 °C 45.8 °F /  7.7 °C 30.22in /  1023.2hPa NNW 0.3mph /  0.5km/h 1mph /  1.6km/h 88% 0.00in /  0mm 0 W/m2
23:24 48.9 °F /  9.4 °C 45.5 °F /  7.5 °C 30.22in /  1023.2hPa Calm   1mph /  1.6km/h 88% 0.00in /  0mm 0 W/m2
23:29 48.9 °F /  9.4 °C 45.5 °F /  7.5 °C 30.22in /  1023.2hPa Calm   1mph /  1.6km/h 88% 0.00in /  0mm 0 W/m2
23:34 48.9 °F /  9.4 °C 45.5 °F /  7.5 °C 30.22in /  1023.2hPa Calm     88% 0.00in /  0mm 0 W/m2
23:39 48.8 °F /  9.3 °C 45.4 °F /  7.4 °C 30.22in /  1023.2hPa Calm     88% 0.00in /  0mm 0 W/m2
23:44 48.7 °F /  9.3 °C 45.2 °F /  7.3 °C 30.22in /  1023.2hPa Calm     88% 0.00in /  0mm 0 W/m2
23:49 48.6 °F /  9.2 °C 45.1 °F /  7.3 °C 30.22in /  1023.2hPa Calm     88% 0.00in /  0mm 0 W/m2
23:54 48.4 °F /  9.1 °C 45.2 °F /  7.3 °C 30.22in /  1023.2hPa Calm     88.6% 0.00in /  0mm 0 W/m2
23:59 48.3 °F /  9.1 °C 45.2 °F /  7.3 °C 30.22in /  1023.2hPa Calm     89% 0.00in /  0mm 0 W/m2
Bath Spa Weather
Compliments of Weather Underground - 2 mb